sensor_id;sensor_type;location;lat;lon;timestamp;pressure;altitude;pressure_sealevel;temperature;humidity
20620;BME280;10469;42.720;23.252;2022-08-11T00:02:44;95050.09;;;18.79;100.00
20620;BME280;10469;42.720;23.252;2022-08-11T00:05:13;95045.72;;;18.84;100.00
20620;BME280;10469;42.720;23.252;2022-08-11T00:07:53;95049.59;;;18.72;100.00
20620;BME280;10469;42.720;23.252;2022-08-11T00:10:21;95049.00;;;18.80;100.00
20620;BME280;10469;42.720;23.252;2022-08-11T00:12:52;95041.78;;;18.95;100.00
20620;BME280;10469;42.720;23.252;2022-08-11T00:15:19;95041.53;;;18.96;100.00
20620;BME280;10469;42.720;23.252;2022-08-11T00:17:46;95042.78;;;19.09;100.00
20620;BME280;10469;42.720;23.252;2022-08-11T00:20:13;95044.81;;;19.22;100.00
20620;BME280;10469;42.720;23.252;2022-08-11T00:22:42;95045.88;;;19.26;100.00
20620;BME280;10469;42.720;23.252;2022-08-11T00:25:15;95048.88;;;19.25;100.00
20620;BME280;10469;42.720;23.252;2022-08-11T00:27:42;95044.72;;;19.33;100.00
20620;BME280;10469;42.720;23.252;2022-08-11T00:30:10;95033.84;;;19.33;100.00
20620;BME280;10469;42.720;23.252;2022-08-11T00:32:38;95031.97;;;19.28;100.00
20620;BME280;10469;42.720;23.252;2022-08-11T00:35:08;95035.88;;;19.22;100.00
20620;BME280;10469;42.720;23.252;2022-08-11T00:37:37;95027.66;;;19.27;100.00
20620;BME280;10469;42.720;23.252;2022-08-11T00:40:07;95015.31;;;19.11;100.00
20620;BME280;10469;42.720;23.252;2022-08-11T00:43:22;95029.75;;;19.06;100.00
20620;BME280;10469;42.720;23.252;2022-08-11T00:46:02;95030.31;;;19.03;100.00
20620;BME280;10469;42.720;23.252;2022-08-11T00:48:44;95028.66;;;19.07;100.00
20620;BME280;10469;42.720;23.252;2022-08-11T01:00:02;95037.63;;;18.73;100.00
20620;BME280;10469;42.720;23.252;2022-08-11T01:02:56;95032.19;;;18.73;100.00
20620;BME280;10469;42.720;23.252;2022-08-11T01:06:05;95026.81;;;18.63;100.00
20620;BME280;10469;42.720;23.252;2022-08-11T01:09:05;95029.28;;;18.60;100.00
20620;BME280;10469;42.720;23.252;2022-08-11T01:11:57;95033.31;;;18.67;100.00
20620;BME280;10469;42.720;23.252;2022-08-11T01:35:34;95009.69;;;18.28;100.00
20620;BME280;10469;42.720;23.252;2022-08-11T01:55:49;95018.28;;;18.41;100.00
20620;BME280;10469;42.720;23.252;2022-08-11T01:58:30;95024.25;;;18.43;100.00
20620;BME280;10469;42.720;23.252;2022-08-11T02:04:30;95016.69;;;18.35;100.00
20620;BME280;10469;42.720;23.252;2022-08-11T02:07:03;95020.50;;;18.34;100.00
20620;BME280;10469;42.720;23.252;2022-08-11T02:10:01;95017.84;;;18.28;100.00
20620;BME280;10469;42.720;23.252;2022-08-11T02:12:52;95021.69;;;18.22;100.00
20620;BME280;10469;42.720;23.252;2022-08-11T02:15:34;95020.53;;;18.28;100.00
20620;BME280;10469;42.720;23.252;2022-08-11T02:18:07;95018.13;;;18.22;100.00
20620;BME280;10469;42.720;23.252;2022-08-11T02:20:45;95022.50;;;18.23;100.00
20620;BME280;10469;42.720;23.252;2022-08-11T02:26:11;95025.59;;;18.01;100.00
20620;BME280;10469;42.720;23.252;2022-08-11T02:34:50;95026.78;;;17.74;100.00
20620;BME280;10469;42.720;23.252;2022-08-11T02:53:36;95031.59;;;16.82;100.00
20620;BME280;10469;42.720;23.252;2022-08-11T02:56:26;95036.19;;;16.92;100.00
20620;BME280;10469;42.720;23.252;2022-08-11T03:02:10;95029.13;;;16.96;100.00
20620;BME280;10469;42.720;23.252;2022-08-11T03:34:07;95037.78;;;17.13;100.00
20620;BME280;10469;42.720;23.252;2022-08-11T03:39:21;95036.44;;;17.11;100.00
20620;BME280;10469;42.720;23.252;2022-08-11T03:50:28;95048.63;;;17.23;100.00
20620;BME280;10469;42.720;23.252;2022-08-11T03:53:29;95034.25;;;17.18;100.00
20620;BME280;10469;42.720;23.252;2022-08-11T04:24:31;95024.19;;;18.92;100.00
20620;BME280;10469;42.720;23.252;2022-08-11T04:35:33;95032.47;;;18.72;100.00
20620;BME280;10469;42.720;23.252;2022-08-11T04:41:23;95043.94;;;18.98;100.00
20620;BME280;10469;42.720;23.252;2022-08-11T04:50:21;95049.84;;;18.76;100.00
20620;BME280;10469;42.720;23.252;2022-08-11T04:53:33;95042.00;;;18.64;100.00
20620;BME280;10469;42.720;23.252;2022-08-11T04:56:27;95046.44;;;18.55;100.00
20620;BME280;10469;42.720;23.252;2022-08-11T05:02:44;95043.50;;;18.86;100.00
20620;BME280;10469;42.720;23.252;2022-08-11T05:05:27;95053.47;;;18.95;100.00
20620;BME280;10469;42.720;23.252;2022-08-11T05:11:30;95036.69;;;19.46;100.00
20620;BME280;10469;42.720;23.252;2022-08-11T05:17:05;95042.81;;;19.62;100.00
20620;BME280;10469;42.720;23.252;2022-08-11T05:19:51;95036.25;;;19.63;100.00
20620;BME280;10469;42.720;23.252;2022-08-11T05:22:35;95038.56;;;19.75;100.00
20620;BME280;10469;42.720;23.252;2022-08-11T05:25:29;95031.84;;;19.91;100.00
20620;BME280;10469;42.720;23.252;2022-08-11T05:28:29;95039.66;;;19.98;100.00
20620;BME280;10469;42.720;23.252;2022-08-11T05:31:15;95050.31;;;19.94;100.00
20620;BME280;10469;42.720;23.252;2022-08-11T05:34:08;95044.75;;;19.57;100.00
20620;BME280;10469;42.720;23.252;2022-08-11T05:37:04;95027.59;;;20.42;100.00
20620;BME280;10469;42.720;23.252;2022-08-11T05:39:33;95040.34;;;20.84;100.00
20620;BME280;10469;42.720;23.252;2022-08-11T05:42:23;95031.16;;;21.13;100.00
20620;BME280;10469;42.720;23.252;2022-08-11T05:45:15;95025.59;;;21.04;100.00
20620;BME280;10469;42.720;23.252;2022-08-11T05:48:01;95023.16;;;21.63;100.00
20620;BME280;10469;42.720;23.252;2022-08-11T05:50:51;95031.06;;;21.92;100.00
20620;BME280;10469;42.720;23.252;2022-08-11T05:53:45;95025.81;;;22.82;100.00
20620;BME280;10469;42.720;23.252;2022-08-11T05:56:31;95017.41;;;23.76;100.00
20620;BME280;10469;42.720;23.252;2022-08-11T06:00:30;95019.22;;;24.82;100.00
20620;BME280;10469;42.720;23.252;2022-08-11T06:02:58;95023.88;;;23.49;100.00
20620;BME280;10469;42.720;23.252;2022-08-11T06:05:36;95022.53;;;25.57;100.00
20620;BME280;10469;42.720;23.252;2022-08-11T06:08:04;95017.94;;;26.88;100.00
20620;BME280;10469;42.720;23.252;2022-08-11T06:10:36;95010.59;;;27.58;100.00
20620;BME280;10469;42.720;23.252;2022-08-11T06:13:04;95027.63;;;26.43;100.00
20620;BME280;10469;42.720;23.252;2022-08-11T06:15:42;95020.44;;;25.45;100.00
20620;BME280;10469;42.720;23.252;2022-08-11T06:18:09;95014.69;;;26.14;100.00
20620;BME280;10469;42.720;23.252;2022-08-11T06:20:46;95014.72;;;24.60;100.00
20620;BME280;10469;42.720;23.252;2022-08-11T06:23:13;95007.94;;;24.57;100.00
20620;BME280;10469;42.720;23.252;2022-08-11T06:25:42;95005.03;;;24.53;100.00
20620;BME280;10469;42.720;23.252;2022-08-11T06:28:08;95011.94;;;25.29;100.00
20620;BME280;10469;42.720;23.252;2022-08-11T06:30:40;95013.53;;;25.86;100.00
20620;BME280;10469;42.720;23.252;2022-08-11T06:33:10;95001.78;;;24.95;100.00
20620;BME280;10469;42.720;23.252;2022-08-11T06:36:02;94995.44;;;25.85;100.00
20620;BME280;10469;42.720;23.252;2022-08-11T06:41:17;94996.28;;;27.19;100.00
20620;BME280;10469;42.720;23.252;2022-08-11T06:46:47;95012.53;;;27.91;100.00
20620;BME280;10469;42.720;23.252;2022-08-11T06:49:15;95005.53;;;26.82;100.00
20620;BME280;10469;42.720;23.252;2022-08-11T06:52:07;95012.88;;;25.42;100.00
20620;BME280;10469;42.720;23.252;2022-08-11T06:54:36;95017.72;;;25.45;100.00
20620;BME280;10469;42.720;23.252;2022-08-11T06:57:11;95009.84;;;24.74;100.00
20620;BME280;10469;42.720;23.252;2022-08-11T06:59:58;95006.31;;;24.56;100.00
20620;BME280;10469;42.720;23.252;2022-08-11T07:02:58;95014.81;;;25.41;100.00
20620;BME280;10469;42.720;23.252;2022-08-11T07:14:24;95011.38;;;26.00;100.00
20620;BME280;10469;42.720;23.252;2022-08-11T07:17:38;95013.41;;;27.25;100.00
20620;BME280;10469;42.720;23.252;2022-08-11T07:20:06;95013.94;;;27.51;100.00
20620;BME280;10469;42.720;23.252;2022-08-11T07:22:56;95017.53;;;28.74;89.39
20620;BME280;10469;42.720;23.252;2022-08-11T07:25:43;95011.44;;;28.81;90.99
20620;BME280;10469;42.720;23.252;2022-08-11T07:28:30;95012.19;;;28.05;92.30
20620;BME280;10469;42.720;23.252;2022-08-11T07:31:23;95014.72;;;28.87;84.79
20620;BME280;10469;42.720;23.252;2022-08-11T07:33:54;95012.97;;;28.30;88.53
20620;BME280;10469;42.720;23.252;2022-08-11T07:36:24;95004.56;;;29.31;84.30
20620;BME280;10469;42.720;23.252;2022-08-11T07:38:53;95009.94;;;29.40;82.91
20620;BME280;10469;42.720;23.252;2022-08-11T07:41:24;95004.81;;;29.10;81.61
20620;BME280;10469;42.720;23.252;2022-08-11T07:43:55;95010.13;;;29.47;75.31
20620;BME280;10469;42.720;23.252;2022-08-11T07:46:41;95003.59;;;29.67;75.47
20620;BME280;10469;42.720;23.252;2022-08-11T07:49:25;94998.81;;;29.36;71.52
20620;BME280;10469;42.720;23.252;2022-08-11T07:52:10;94991.84;;;32.91;57.88
20620;BME280;10469;42.720;23.252;2022-08-11T07:54:58;94993.09;;;32.97;51.57
20620;BME280;10469;42.720;23.252;2022-08-11T07:57:25;95007.59;;;30.49;60.69
20620;BME280;10469;42.720;23.252;2022-08-11T08:00:10;94982.75;;;31.27;61.94
20620;BME280;10469;42.720;23.252;2022-08-11T08:02:54;94987.59;;;32.44;56.50
20620;BME280;10469;42.720;23.252;2022-08-11T08:05:38;94990.19;;;30.68;62.36
20620;BME280;10469;42.720;23.252;2022-08-11T08:08:24;94984.72;;;28.45;74.80
20620;BME280;10469;42.720;23.252;2022-08-11T08:11:09;95000.56;;;29.72;72.73
20620;BME280;10469;42.720;23.252;2022-08-11T08:13:54;94990.31;;;29.01;76.40
20620;BME280;10469;42.720;23.252;2022-08-11T08:16:39;95000.34;;;28.93;78.88
20620;BME280;10469;42.720;23.252;2022-08-11T08:19:24;94983.16;;;30.70;67.74
20620;BME280;10469;42.720;23.252;2022-08-11T08:21:50;94984.53;;;32.04;55.97
20620;BME280;10469;42.720;23.252;2022-08-11T08:24:17;94989.97;;;30.06;64.77
20620;BME280;10469;42.720;23.252;2022-08-11T08:26:47;94979.00;;;29.62;69.04
20620;BME280;10469;42.720;23.252;2022-08-11T08:29:22;94989.97;;;30.57;69.01
20620;BME280;10469;42.720;23.252;2022-08-11T08:32:08;94979.66;;;30.73;65.29
20620;BME280;10469;42.720;23.252;2022-08-11T08:34:38;94982.75;;;30.88;64.67
20620;BME280;10469;42.720;23.252;2022-08-11T08:37:05;94980.78;;;29.27;72.14
20620;BME280;10469;42.720;23.252;2022-08-11T08:39:32;94968.59;;;29.28;69.85
20620;BME280;10469;42.720;23.252;2022-08-11T08:42:01;94964.13;;;28.55;73.64
20620;BME280;10469;42.720;23.252;2022-08-11T08:44:30;94976.03;;;29.11;71.60
20620;BME280;10469;42.720;23.252;2022-08-11T08:46:59;94972.00;;;30.32;65.30
20620;BME280;10469;42.720;23.252;2022-08-11T08:49:32;94972.09;;;29.88;70.54
20620;BME280;10469;42.720;23.252;2022-08-11T08:52:02;94962.50;;;30.84;66.90
20620;BME280;10469;42.720;23.252;2022-08-11T08:54:33;94977.19;;;31.07;60.34
20620;BME280;10469;42.720;23.252;2022-08-11T08:57:05;94966.88;;;30.14;67.00
20620;BME280;10469;42.720;23.252;2022-08-11T08:59:40;94967.09;;;30.41;63.57
20620;BME280;10469;42.720;23.252;2022-08-11T09:02:07;94959.06;;;31.29;61.32
20620;BME280;10469;42.720;23.252;2022-08-11T09:04:38;94948.56;;;31.19;56.47
20620;BME280;10469;42.720;23.252;2022-08-11T09:07:15;94966.13;;;30.17;62.90
20620;BME280;10469;42.720;23.252;2022-08-11T09:09:43;94956.44;;;30.97;58.39
20620;BME280;10469;42.720;23.252;2022-08-11T09:12:10;94957.53;;;31.78;52.58
20620;BME280;10469;42.720;23.252;2022-08-11T09:14:38;94958.22;;;31.48;55.19
20620;BME280;10469;42.720;23.252;2022-08-11T09:17:23;94950.25;;;29.51;59.94
20620;BME280;10469;42.720;23.252;2022-08-11T09:19:56;94958.81;;;30.25;64.43
20620;BME280;10469;42.720;23.252;2022-08-11T09:22:26;94952.59;;;29.81;63.53
20620;BME280;10469;42.720;23.252;2022-08-11T09:25:11;94948.84;;;29.89;62.36
20620;BME280;10469;42.720;23.252;2022-08-11T09:27:56;94946.66;;;30.14;65.88
20620;BME280;10469;42.720;23.252;2022-08-11T09:30:24;94946.31;;;29.52;68.66
20620;BME280;10469;42.720;23.252;2022-08-11T09:32:55;94951.19;;;28.71;71.92
20620;BME280;10469;42.720;23.252;2022-08-11T09:35:24;94948.25;;;29.36;71.80
20620;BME280;10469;42.720;23.252;2022-08-11T09:37:51;94954.78;;;29.43;69.77
20620;BME280;10469;42.720;23.252;2022-08-11T09:40:37;94940.44;;;30.17;67.01
20620;BME280;10469;42.720;23.252;2022-08-11T09:43:05;94942.78;;;30.50;62.08
20620;BME280;10469;42.720;23.252;2022-08-11T09:45:52;94939.41;;;30.60;63.51
20620;BME280;10469;42.720;23.252;2022-08-11T09:48:26;94943.44;;;31.63;56.82
20620;BME280;10469;42.720;23.252;2022-08-11T09:50:55;94938.38;;;30.84;58.43
20620;BME280;10469;42.720;23.252;2022-08-11T09:53:23;94920.13;;;28.34;69.37
20620;BME280;10469;42.720;23.252;2022-08-11T09:55:49;94923.38;;;28.36;75.68
20620;BME280;10469;42.720;23.252;2022-08-11T09:58:15;94919.50;;;30.70;61.98
20620;BME280;10469;42.720;23.252;2022-08-11T10:00:46;94924.63;;;29.66;65.23
20620;BME280;10469;42.720;23.252;2022-08-11T10:03:17;94914.72;;;31.29;56.85
20620;BME280;10469;42.720;23.252;2022-08-11T10:05:46;94911.59;;;31.11;57.84
20620;BME280;10469;42.720;23.252;2022-08-11T10:08:31;94914.66;;;30.48;59.29
20620;BME280;10469;42.720;23.252;2022-08-11T10:11:00;94899.91;;;31.41;55.44
20620;BME280;10469;42.720;23.252;2022-08-11T10:13:32;94908.47;;;31.32;54.67
20620;BME280;10469;42.720;23.252;2022-08-11T10:16:24;94917.38;;;29.62;56.05
20620;BME280;10469;42.720;23.252;2022-08-11T10:18:53;94910.41;;;30.35;56.38
20620;BME280;10469;42.720;23.252;2022-08-11T10:21:35;94915.75;;;28.45;57.79
20620;BME280;10469;42.720;23.252;2022-08-11T10:24:03;94910.28;;;30.28;52.07
20620;BME280;10469;42.720;23.252;2022-08-11T10:26:49;94908.53;;;31.36;50.32
20620;BME280;10469;42.720;23.252;2022-08-11T10:29:31;94905.38;;;30.21;51.69
20620;BME280;10469;42.720;23.252;2022-08-11T10:32:20;94908.91;;;29.70;54.99
20620;BME280;10469;42.720;23.252;2022-08-11T10:35:05;94910.66;;;29.31;53.84
20620;BME280;10469;42.720;23.252;2022-08-11T10:37:35;94916.84;;;29.72;55.41
20620;BME280;10469;42.720;23.252;2022-08-11T10:40:02;94918.03;;;30.57;53.48
20620;BME280;10469;42.720;23.252;2022-08-11T10:42:28;94896.78;;;29.28;56.39
20620;BME280;10469;42.720;23.252;2022-08-11T10:45:14;94908.81;;;29.51;57.00
20620;BME280;10469;42.720;23.252;2022-08-11T10:47:59;94900.41;;;29.32;57.23
20620;BME280;10469;42.720;23.252;2022-08-11T10:50:26;94885.41;;;29.96;55.16
20620;BME280;10469;42.720;23.252;2022-08-11T10:53:11;94893.22;;;30.26;52.89
20620;BME280;10469;42.720;23.252;2022-08-11T10:55:57;94887.25;;;29.72;58.52
20620;BME280;10469;42.720;23.252;2022-08-11T10:58:42;94885.63;;;29.40;55.67
20620;BME280;10469;42.720;23.252;2022-08-11T11:04:00;94882.31;;;31.56;49.44
20620;BME280;10469;42.720;23.252;2022-08-11T11:06:37;94874.44;;;29.99;55.65
20620;BME280;10469;42.720;23.252;2022-08-11T11:09:14;94870.56;;;30.75;53.08
20620;BME280;10469;42.720;23.252;2022-08-11T11:11:53;94880.72;;;29.17;56.49
20620;BME280;10469;42.720;23.252;2022-08-11T11:14:40;94866.13;;;29.64;57.45
20620;BME280;10469;42.720;23.252;2022-08-11T11:17:32;94855.94;;;29.53;57.66
20620;BME280;10469;42.720;23.252;2022-08-11T11:23:03;94873.00;;;30.99;51.57
20620;BME280;10469;42.720;23.252;2022-08-11T11:34:22;94853.06;;;32.08;47.70
20620;BME280;10469;42.720;23.252;2022-08-11T11:36:56;94869.16;;;30.10;53.17
20620;BME280;10469;42.720;23.252;2022-08-11T11:39:25;94860.78;;;30.42;54.44
20620;BME280;10469;42.720;23.252;2022-08-11T11:41:54;94871.03;;;29.39;55.25
20620;BME280;10469;42.720;23.252;2022-08-11T11:44:20;94864.84;;;29.14;56.88
20620;BME280;10469;42.720;23.252;2022-08-11T11:46:50;94845.81;;;29.09;57.54
20620;BME280;10469;42.720;23.252;2022-08-11T11:49:18;94857.38;;;28.71;61.18
20620;BME280;10469;42.720;23.252;2022-08-11T11:51:49;94856.38;;;28.35;61.11
20620;BME280;10469;42.720;23.252;2022-08-11T11:54:20;94854.09;;;27.60;64.81
20620;BME280;10469;42.720;23.252;2022-08-11T11:56:47;94859.13;;;27.83;66.03
20620;BME280;10469;42.720;23.252;2022-08-11T12:20:23;94834.06;;;28.68;57.57
20620;BME280;10469;42.720;23.252;2022-08-11T12:25:51;94833.41;;;27.54;59.78
20620;BME280;10469;42.720;23.252;2022-08-11T12:28:35;94821.28;;;28.48;58.92
20620;BME280;10469;42.720;23.252;2022-08-11T12:31:02;94828.34;;;28.61;66.00
20620;BME280;10469;42.720;23.252;2022-08-11T12:33:28;94818.38;;;27.76;70.55
20620;BME280;10469;42.720;23.252;2022-08-11T12:35:58;94832.72;;;27.82;73.48
20620;BME280;10469;42.720;23.252;2022-08-11T12:38:24;94835.72;;;27.77;71.54
20620;BME280;10469;42.720;23.252;2022-08-11T12:40:51;94840.41;;;27.27;74.54
20620;BME280;10469;42.720;23.252;2022-08-11T12:43:37;94817.19;;;26.91;74.39
20620;BME280;10469;42.720;23.252;2022-08-11T12:46:32;94841.72;;;26.51;83.92
20620;BME280;10469;42.720;23.252;2022-08-11T12:49:00;94847.66;;;26.20;89.96
20620;BME280;10469;42.720;23.252;2022-08-11T12:51:50;94837.25;;;26.46;90.43
20620;BME280;10469;42.720;23.252;2022-08-11T12:54:33;94847.44;;;26.25;92.13
20620;BME280;10469;42.720;23.252;2022-08-11T12:57:02;94817.78;;;25.97;93.20
20620;BME280;10469;42.720;23.252;2022-08-11T12:59:49;94835.41;;;26.17;83.91
20620;BME280;10469;42.720;23.252;2022-08-11T13:02:34;94832.16;;;26.15;82.20
20620;BME280;10469;42.720;23.252;2022-08-11T13:05:19;94825.50;;;25.74;92.74
20620;BME280;10469;42.720;23.252;2022-08-11T13:07:46;94836.88;;;25.64;97.68
20620;BME280;10469;42.720;23.252;2022-08-11T13:10:13;94823.84;;;25.61;96.14
20620;BME280;10469;42.720;23.252;2022-08-11T13:13:01;94828.38;;;25.57;96.94
20620;BME280;10469;42.720;23.252;2022-08-11T13:15:27;94823.28;;;25.68;96.90
20620;BME280;10469;42.720;23.252;2022-08-11T13:17:53;94829.47;;;25.65;99.41
20620;BME280;10469;42.720;23.252;2022-08-11T13:20:23;94840.66;;;25.51;100.00
20620;BME280;10469;42.720;23.252;2022-08-11T13:22:54;94812.31;;;25.38;95.83
20620;BME280;10469;42.720;23.252;2022-08-11T13:25:23;94825.75;;;25.40;92.76
20620;BME280;10469;42.720;23.252;2022-08-11T13:27:54;94830.44;;;25.60;91.91
20620;BME280;10469;42.720;23.252;2022-08-11T13:30:22;94813.38;;;25.55;88.89
20620;BME280;10469;42.720;23.252;2022-08-11T13:33:08;94825.13;;;25.85;88.85
20620;BME280;10469;42.720;23.252;2022-08-11T13:35:35;94830.63;;;26.06;86.27
20620;BME280;10469;42.720;23.252;2022-08-11T13:38:02;94795.78;;;25.76;86.71
20620;BME280;10469;42.720;23.252;2022-08-11T13:40:29;94809.53;;;25.97;85.89
20620;BME280;10469;42.720;23.252;2022-08-11T13:42:56;94807.97;;;26.30;79.23
20620;BME280;10469;42.720;23.252;2022-08-11T13:45:25;94799.81;;;26.00;75.68
20620;BME280;10469;42.720;23.252;2022-08-11T13:47:54;94805.38;;;26.12;76.52
20620;BME280;10469;42.720;23.252;2022-08-11T13:50:23;94797.31;;;25.86;78.05
20620;BME280;10469;42.720;23.252;2022-08-11T13:53:15;94817.75;;;26.18;79.33
20620;BME280;10469;42.720;23.252;2022-08-11T13:55:41;94804.28;;;26.25;74.58
20620;BME280;10469;42.720;23.252;2022-08-11T13:58:09;94793.28;;;26.25;76.17
20620;BME280;10469;42.720;23.252;2022-08-11T14:00:36;94804.13;;;26.43;70.65
20620;BME280;10469;42.720;23.252;2022-08-11T14:03:05;94795.81;;;26.31;70.41
20620;BME280;10469;42.720;23.252;2022-08-11T14:05:39;94792.03;;;26.02;71.32
20620;BME280;10469;42.720;23.252;2022-08-11T14:08:11;94799.66;;;25.75;74.10
20620;BME280;10469;42.720;23.252;2022-08-11T14:10:38;94806.47;;;25.78;72.01
20620;BME280;10469;42.720;23.252;2022-08-11T14:13:11;94796.34;;;25.91;71.05
20620;BME280;10469;42.720;23.252;2022-08-11T14:16:02;94800.09;;;26.40;74.33
20620;BME280;10469;42.720;23.252;2022-08-11T14:18:30;94801.09;;;26.36;74.54
20620;BME280;10469;42.720;23.252;2022-08-11T14:20:59;94811.03;;;26.28;75.69
20620;BME280;10469;42.720;23.252;2022-08-11T14:23:49;94812.41;;;26.55;74.35
20620;BME280;10469;42.720;23.252;2022-08-11T14:26:20;94797.34;;;26.73;75.11
20620;BME280;10469;42.720;23.252;2022-08-11T14:29:13;94804.13;;;26.88;72.61
20620;BME280;10469;42.720;23.252;2022-08-11T14:31:52;94799.00;;;26.54;74.93
20620;BME280;10469;42.720;23.252;2022-08-11T14:34:20;94802.31;;;26.47;77.30
20620;BME280;10469;42.720;23.252;2022-08-11T14:36:50;94795.72;;;26.72;76.93
20620;BME280;10469;42.720;23.252;2022-08-11T14:39:21;94796.06;;;26.71;78.80
20620;BME280;10469;42.720;23.252;2022-08-11T14:41:50;94793.50;;;27.11;76.18
20620;BME280;10469;42.720;23.252;2022-08-11T14:44:37;94796.03;;;27.16;76.12
20620;BME280;10469;42.720;23.252;2022-08-11T14:47:22;94788.69;;;27.20;75.95
20620;BME280;10469;42.720;23.252;2022-08-11T14:49:49;94774.94;;;27.20;75.28
20620;BME280;10469;42.720;23.252;2022-08-11T14:52:17;94792.31;;;27.00;72.71
20620;BME280;10469;42.720;23.252;2022-08-11T14:54:47;94795.13;;;27.12;72.56
20620;BME280;10469;42.720;23.252;2022-08-11T14:57:35;94794.78;;;27.26;72.04
20620;BME280;10469;42.720;23.252;2022-08-11T15:00:04;94789.09;;;26.98;73.03
20620;BME280;10469;42.720;23.252;2022-08-11T15:02:33;94781.00;;;27.26;76.38
20620;BME280;10469;42.720;23.252;2022-08-11T15:05:20;94776.75;;;27.41;76.29
20620;BME280;10469;42.720;23.252;2022-08-11T15:07:46;94772.31;;;27.12;73.88
20620;BME280;10469;42.720;23.252;2022-08-11T15:10:12;94781.16;;;26.72;75.17
20620;BME280;10469;42.720;23.252;2022-08-11T15:12:39;94771.69;;;26.82;77.61
20620;BME280;10469;42.720;23.252;2022-08-11T15:15:09;94770.16;;;26.26;81.92
20620;BME280;10469;42.720;23.252;2022-08-11T15:17:57;94774.59;;;25.98;84.89
20620;BME280;10469;42.720;23.252;2022-08-11T15:20:24;94771.19;;;26.01;85.11
20620;BME280;10469;42.720;23.252;2022-08-11T15:23:09;94780.22;;;25.60;84.95
20620;BME280;10469;42.720;23.252;2022-08-11T15:26:06;94772.78;;;25.60;83.43
20620;BME280;10469;42.720;23.252;2022-08-11T15:28:39;94786.38;;;25.57;81.91
20620;BME280;10469;42.720;23.252;2022-08-11T15:31:26;94785.03;;;25.42;82.06
20620;BME280;10469;42.720;23.252;2022-08-11T15:34:03;94771.56;;;25.28;83.62
20620;BME280;10469;42.720;23.252;2022-08-11T15:36:50;94771.75;;;25.23;81.77
20620;BME280;10469;42.720;23.252;2022-08-11T15:39:46;94785.16;;;25.45;77.44
20620;BME280;10469;42.720;23.252;2022-08-11T15:42:31;94777.38;;;25.47;77.43
20620;BME280;10469;42.720;23.252;2022-08-11T15:45:19;94786.03;;;25.37;80.43
20620;BME280;10469;42.720;23.252;2022-08-11T15:48:08;94785.56;;;25.35;82.15
20620;BME280;10469;42.720;23.252;2022-08-11T15:50:38;94779.63;;;25.24;86.12
20620;BME280;10469;42.720;23.252;2022-08-11T15:53:11;94789.72;;;25.12;87.48
20620;BME280;10469;42.720;23.252;2022-08-11T15:55:38;94785.03;;;25.03;89.92
20620;BME280;10469;42.720;23.252;2022-08-11T15:58:06;94790.88;;;25.02;89.78
20620;BME280;10469;42.720;23.252;2022-08-11T16:00:51;94795.75;;;24.96;90.76
20620;BME280;10469;42.720;23.252;2022-08-11T16:03:53;94801.63;;;25.16;87.57
20620;BME280;10469;42.720;23.252;2022-08-11T16:07:22;94796.09;;;24.86;88.31
20620;BME280;10469;42.720;23.252;2022-08-11T16:09:32;94803.16;;;24.96;89.34
20620;BME280;10469;42.720;23.252;2022-08-11T16:12:03;94803.63;;;24.98;90.35
20620;BME280;10469;42.720;23.252;2022-08-11T16:14:32;94794.94;;;24.96;89.62
20620;BME280;10469;42.720;23.252;2022-08-11T16:17:18;94794.63;;;24.89;87.63
20620;BME280;10469;42.720;23.252;2022-08-11T16:19:47;94791.28;;;24.83;88.02
20620;BME280;10469;42.720;23.252;2022-08-11T16:22:18;94794.34;;;24.82;88.04
20620;BME280;10469;42.720;23.252;2022-08-11T16:24:47;94804.97;;;24.92;89.25
20620;BME280;10469;42.720;23.252;2022-08-11T16:27:15;94795.25;;;24.94;88.17
20620;BME280;10469;42.720;23.252;2022-08-11T16:29:45;94791.25;;;24.92;86.66
20620;BME280;10469;42.720;23.252;2022-08-11T16:32:18;94802.50;;;24.99;84.85
20620;BME280;10469;42.720;23.252;2022-08-11T16:34:55;94797.63;;;25.13;84.68
20620;BME280;10469;42.720;23.252;2022-08-11T16:37:40;94794.78;;;24.92;82.72
20620;BME280;10469;42.720;23.252;2022-08-11T16:40:27;94810.59;;;24.87;85.03
20620;BME280;10469;42.720;23.252;2022-08-11T16:42:54;94799.31;;;24.88;83.78
20620;BME280;10469;42.720;23.252;2022-08-11T16:45:40;94800.44;;;24.96;83.05
20620;BME280;10469;42.720;23.252;2022-08-11T16:48:29;94802.97;;;25.10;80.24
20620;BME280;10469;42.720;23.252;2022-08-11T16:50:55;94810.88;;;25.02;80.54
20620;BME280;10469;42.720;23.252;2022-08-11T16:53:24;94803.22;;;24.87;81.71
20620;BME280;10469;42.720;23.252;2022-08-11T16:55:50;94794.34;;;24.82;81.69
20620;BME280;10469;42.720;23.252;2022-08-11T16:58:17;94812.25;;;24.88;81.28
20620;BME280;10469;42.720;23.252;2022-08-11T17:01:02;94816.28;;;24.82;82.62
20620;BME280;10469;42.720;23.252;2022-08-11T17:03:29;94806.97;;;24.65;82.54
20620;BME280;10469;42.720;23.252;2022-08-11T17:06:16;94814.75;;;24.55;81.44
20620;BME280;10469;42.720;23.252;2022-08-11T17:09:03;94813.00;;;24.41;83.04
20620;BME280;10469;42.720;23.252;2022-08-11T17:11:58;94822.03;;;24.33;83.93
20620;BME280;10469;42.720;23.252;2022-08-11T17:14:59;94827.19;;;24.26;84.71
20620;BME280;10469;42.720;23.252;2022-08-11T17:17:28;94820.91;;;24.25;84.89
20620;BME280;10469;42.720;23.252;2022-08-11T17:20:00;94828.81;;;24.18;85.72
20620;BME280;10469;42.720;23.252;2022-08-11T17:22:29;94843.31;;;24.27;85.97
20620;BME280;10469;42.720;23.252;2022-08-11T17:25:14;94841.69;;;24.18;86.70
20620;BME280;10469;42.720;23.252;2022-08-11T17:27:42;94844.94;;;24.11;87.49
20620;BME280;10469;42.720;23.252;2022-08-11T17:30:08;94839.91;;;24.04;87.72